Flight Track Log - Related Links

Times and Time Zones

All times are in EDT time to prevent confusion due to time zone crossing. See the SWA1008 flight status page for this flight to view local times or setup timezone preferences in your user account.

Time Position Orientation Groundspeed Altitude Reporting Facility
EDT Latitude Longitude Course Direction KTS MPH feet Rate Location/Type
Sat 08:11:51 AM 32.8333 -96.8333 121° Southeast 152 175 1,300  Level Dallas / Fort Worth TRACON
Sat 08:12:39 AM 32.8167 -96.8000 121° Southeast 187 215 2,800 2,111 Climbing Dallas / Fort Worth TRACON
Sat 08:13:39 AM 32.7833 -96.7333 121° Southeast 222 255 5,100 2,600 Climbing Dallas / Fort Worth TRACON
Sat 08:14:39 AM 32.8500 -96.7333 360° North 251 289 8,000 2,471 Climbing Dallas / Fort Worth TRACON
Sat 08:16:46 AM 33.0075 -96.8264 334° Northwest 307 353 12,800 2,439 Climbing Fort Worth Center
Sat 08:17:46 AM 33.0953 -96.8803 333° Northwest 336 387 15,600 2,800 Climbing Fort Worth Center
Sat 08:18:46 AM 33.1769 -96.9369 330° Northwest 369 425 18,400 2,950 Climbing Fort Worth Center
Sat 08:19:46 AM 33.2878 -96.9811 342° North 374 430 21,500 2,800 Climbing Fort Worth Center
Sat 08:20:46 AM 33.3983 -97.0103 348° North 390 449 24,000 2,400 Climbing Fort Worth Center
Sat 08:21:46 AM 33.5111 -96.9925 North 395 455 26,300 2,200 Climbing Fort Worth Center
Sat 08:22:46 AM 33.6217 -96.9544 16° North 400 460 28,400 1,950 Climbing Fort Worth Center
Sat 08:23:46 AM 33.7383 -96.9164 15° North 412 474 30,200 1,905 Climbing Fort Worth Center
Sat 08:25:55 AM 33.9642 -96.8392 16° North 427 491 34,400 1,800 Climbing Kansas City Center
Sat 08:26:46 AM 34.0822 -96.8017 15° North 417 480 35,600 1,514 Climbing Fort Worth Center
Sat 08:27:46 AM 34.1906 -96.7708 13° North 410 472 37,200 1,500 Climbing Fort Worth Center
Sat 08:28:46 AM 34.3072 -96.7297 16° North 416 479 38,600 1,350 Climbing Fort Worth Center
Sat 08:29:46 AM 34.4197 -96.6936 15° North 416 479 39,900 1,200 Climbing Fort Worth Center
Sat 08:30:46 AM 34.5319 -96.6572 15° North 411 473 41,000 550 Climbing Fort Worth Center
Sat 08:31:46 AM 34.6425 -96.6183 16° North 411 473 41,000  Level Fort Worth Center
Sat 08:32:46 AM 34.7547 -96.5819 15° North 411 473 41,000  Level Fort Worth Center
Sat 08:33:46 AM 34.8672 -96.5431 16° North 411 473 41,000  Level Fort Worth Center
Sat 08:34:46 AM 34.9794 -96.5064 15° North 411 473 41,000  Level Fort Worth Center
Sat 08:35:46 AM 35.0919 -96.4697 15° North 411 473 41,000  Level Fort Worth Center
Sat 08:38:06 AM 35.3317 -96.3875 16° North 412 474 41,000  Level Kansas City Center
Sat 08:39:07 AM 35.4622 -96.3425 16° North 409 471 41,000  Level Kansas City Center
Sat 08:40:08 AM 35.5711 -96.3058 15° North 408 470 41,000  Level Kansas City Center
Sat 08:41:09 AM 35.6803 -96.2697 15° North 408 470 41,000  Level Kansas City Center
Sat 08:42:10 AM 35.7897 -96.2322 16° North 409 471 41,000  Level Kansas City Center
Sat 08:43:11 AM 35.8947 -96.1975 15° North 406 467 41,000  Level Kansas City Center
Sat 08:44:12 AM 36.0061 -96.1594 15° North 409 471 41,000  Level Kansas City Center
Sat 08:45:13 AM 36.1172 -96.1219 15° North 411 473 41,000  Level Kansas City Center
Sat 08:46:14 AM 36.2286 -96.0850 15° North 411 473 41,000  Level Kansas City Center
Sat 08:47:15 AM 36.3406 -96.0458 16° North 412 474 41,000  Level Kansas City Center
Sat 08:48:16 AM 36.4550 -96.0069 15° North 419 482 41,000  Level Kansas City Center
Sat 08:49:17 AM 36.5686 -95.9672 16° North 420 483 41,000  Level Kansas City Center
Sat 08:50:18 AM 36.6825 -95.9269 16° North 420 483 41,000  Level Kansas City Center
Sat 08:51:19 AM 36.7947 -95.8883 15° North 417 480 41,000  Level Kansas City Center
Sat 08:52:20 AM 36.9081 -95.8483 16° North 419 482 41,000  Level Kansas City Center
Sat 08:53:21 AM 37.0408 -95.8011 16° North 415 478 41,000  Level Kansas City Center
Sat 08:54:22 AM 37.1531 -95.7625 15° North 415 478 41,000  Level Kansas City Center
Sat 08:56:24 AM 37.3756 -95.6828 16° North 414 476 41,000 -25 Level Kansas City Center
Sat 08:58:26 AM 37.6006 -95.6017 16° North 419 482 40,900 -33 Descending Kansas City Center
Sat 08:59:28 AM 37.7169 -95.5797 North 421 484 40,900 -390 Level Kansas City Center
Sat 09:00:29 AM 37.8317 -95.5631 North 416 479 40,100 -934 Descending Kansas City Center
Sat 09:01:30 AM 37.9514 -95.5478 North 414 476 39,000 -541 Descending Kansas City Center
Sat 09:02:31 AM 38.0603 -95.5322 North 411 473 39,000 -98 Level Kansas City Center
Sat 09:03:32 AM 38.1844 -95.5136 North 404 465 38,800 -1,770 Descending Kansas City Center
Sat 09:04:33 AM 38.2914 -95.4978 North 403 464 35,400 -3,317 Descending Kansas City Center
Sat 09:05:35 AM 38.4078 -95.4811 North 436 502 32,000 -3,902 Descending Kansas City Center
Sat 09:06:36 AM 38.5461 -95.4594 North 446 513 27,400 -3,984 Descending Kansas City Center
Sat 09:07:37 AM 38.6667 -95.4406 North 454 522 23,900 -3,610 Descending Kansas City Center
Sat 09:08:39 AM 38.8039 -95.4181 North 445 512 20,000 -3,220 Descending Kansas City Center
Sat 09:09:40 AM 38.8819 -95.3142 46° Northeast 420 483 17,300 -2,754 Descending Kansas City Center
Sat 09:10:41 AM 38.9525 -95.2128 48° Northeast 402 463 14,400 -3,148 Descending Kansas City Center
Sat 09:11:42 AM 39.0497 -95.1244 35° Northeast 390 449 10,900 -2,098 Descending Kansas City Center
Sat 09:12:44 AM 39.1281 -95.0572 34° Northeast 352 405 10,100 -1,171 Descending Kansas City Center
Sat 09:13:45 AM 39.2050 -94.9925 33° Northeast 299 344 8,500 -1,721 Descending Kansas City Center
Sat 09:14:46 AM 39.2672 -94.9386 34° Northeast 285 328 6,600 -1,902 Descending Kansas City Center
Sat 09:15:48 AM 39.3386 -94.8736 35° Northeast 283 326 4,600 -1,512 Descending Kansas City Center
Sat 09:16:49 AM 39.3994 -94.8169 36° Northeast 283 326 3,500 -541 Descending Kansas City Center
Sat 09:17:50 AM 39.4211 -94.7511 67° East 227 261 3,500 -585 Level Kansas City Center
Sat 09:18:52 AM 39.3900 -94.7008 129° Southeast 162 186 2,300 -878 Descending Kansas City Center
Sat 09:19:53 AM 39.3581 -94.7103 193° South 121 139 1,700 -639 Descending Kansas City Center
Sat 09:20:54 AM 39.3211 -94.7211 193° South 121 139 1,000 -689 Descending Kansas City Center
Sat 09:22:00 AM 39.2976 -94.7139 180° South  Level Estimated

Login

Don't have an account? Register now (free) for customized features, flight alerts, and more!